createdAt,value
2022-10-23T00:01:17.562Z,20.60
2022-10-23T00:03:44.707Z,19.80
2022-10-23T00:06:13.175Z,20.10
2022-10-23T00:08:40.992Z,17.80
2022-10-23T00:11:14.734Z,19.60
2022-10-23T00:13:41.421Z,20.90
2022-10-23T00:16:09.380Z,19.20
2022-10-23T00:18:38.574Z,23.70
2022-10-23T00:21:07.327Z,20.30
2022-10-23T00:23:34.054Z,19.10
2022-10-23T00:26:00.829Z,19.50
2022-10-23T00:28:27.360Z,20.50
2022-10-23T00:30:54.162Z,18.50
2022-10-23T00:33:20.854Z,19.50
2022-10-23T00:35:47.344Z,21.90
2022-10-23T00:38:13.988Z,20.40
2022-10-23T00:40:40.666Z,21.80
2022-10-23T00:43:07.783Z,18.70
2022-10-23T00:45:34.732Z,17.70
2022-10-23T00:48:03.004Z,19.60
2022-10-23T00:50:33.054Z,18.30
2022-10-23T00:53:03.351Z,19.20
2022-10-23T00:55:30.915Z,16.90
2022-10-23T00:57:57.538Z,17.60
2022-10-23T01:00:28.046Z,19.10
2022-10-23T01:02:56.574Z,19.00
2022-10-23T01:05:29.906Z,19.00
2022-10-23T01:08:02.884Z,20.80
2022-10-23T01:10:40.058Z,19.50
2022-10-23T01:13:15.092Z,22.40
2022-10-23T01:15:52.898Z,20.60
2022-10-23T01:18:56.867Z,20.80
2022-10-23T01:21:34.724Z,21.10
2022-10-23T01:24:01.192Z,24.20
2022-10-23T01:26:43.057Z,23.10
2022-10-23T01:29:29.670Z,25.40
2022-10-23T01:32:11.439Z,25.10
2022-10-23T01:34:47.126Z,26.00
2022-10-23T01:37:20.053Z,26.80
2022-10-23T01:39:52.282Z,26.30
2022-10-23T01:42:24.038Z,27.90
2022-10-23T01:45:01.347Z,26.40
2022-10-23T01:47:33.822Z,23.50
2022-10-23T01:50:03.157Z,24.90
2022-10-23T01:52:30.590Z,23.80
2022-10-23T01:55:00.767Z,27.80
2022-10-23T01:57:31.558Z,25.10
2022-10-23T02:00:13.258Z,25.10
2022-10-23T02:02:42.008Z,26.00
2022-10-23T02:05:15.034Z,22.80
2022-10-23T02:07:41.775Z,18.60
2022-10-23T02:10:09.979Z,19.00
2022-10-23T02:12:45.613Z,16.70
2022-10-23T02:15:23.010Z,21.50
2022-10-23T02:18:13.170Z,17.80
2022-10-23T02:20:46.416Z,18.60
2022-10-23T02:23:21.660Z,18.30
2022-10-23T02:26:00.703Z,18.70
2022-10-23T02:28:35.148Z,17.50
2022-10-23T02:31:04.626Z,19.50
2022-10-23T02:33:32.851Z,15.80
2022-10-23T02:35:59.440Z,15.30
2022-10-23T02:38:29.871Z,15.70
2022-10-23T02:41:03.318Z,18.20
2022-10-23T02:43:41.491Z,16.00
2022-10-23T02:46:11.078Z,18.00
2022-10-23T02:48:44.830Z,16.80
2022-10-23T02:51:29.988Z,16.20
2022-10-23T02:54:02.502Z,13.20
2022-10-23T02:56:56.555Z,16.20
2022-10-23T02:59:37.227Z,16.70
2022-10-23T03:02:22.869Z,14.90
2022-10-23T03:04:51.003Z,15.00
2022-10-23T03:07:19.990Z,14.70
2022-10-23T03:09:46.665Z,16.40
2022-10-23T03:12:13.172Z,15.40
2022-10-23T03:14:39.589Z,13.90
2022-10-23T03:17:06.192Z,15.90
2022-10-23T03:19:32.697Z,18.60
2022-10-23T03:21:59.235Z,22.30
2022-10-23T03:24:25.878Z,15.70
2022-10-23T03:26:52.319Z,15.00
2022-10-23T03:29:18.957Z,17.50
2022-10-23T03:31:45.449Z,17.00
2022-10-23T03:34:11.915Z,20.20
2022-10-23T03:36:38.389Z,14.40
2022-10-23T03:39:05.290Z,19.20
2022-10-23T03:41:32.385Z,20.70
2022-10-23T03:43:58.917Z,21.80
2022-10-23T03:46:25.879Z,20.60
2022-10-23T03:48:52.334Z,22.80
2022-10-23T03:51:18.975Z,25.30
2022-10-23T03:53:45.405Z,27.20
2022-10-23T03:56:11.859Z,26.00
2022-10-23T03:58:38.319Z,24.70
2022-10-23T04:01:04.849Z,24.10
2022-10-23T04:03:31.428Z,36.00
2022-10-23T04:05:57.887Z,31.50
2022-10-23T04:08:24.375Z,33.90
2022-10-23T04:10:50.830Z,29.90
2022-10-23T04:13:17.508Z,30.00
2022-10-23T04:15:51.474Z,31.10
2022-10-23T04:18:18.376Z,32.40
2022-10-23T04:20:48.291Z,34.30
2022-10-23T04:23:15.962Z,33.70
2022-10-23T04:25:42.632Z,37.00
2022-10-23T04:28:09.753Z,38.60
2022-10-23T04:30:36.294Z,42.00
2022-10-23T04:33:02.968Z,40.00
2022-10-23T04:35:29.415Z,42.10
2022-10-23T04:37:56.021Z,41.70
2022-10-23T04:40:22.557Z,42.80
2022-10-23T04:42:49.098Z,43.70
2022-10-23T04:45:15.747Z,43.60
2022-10-23T04:47:42.183Z,42.80
2022-10-23T04:50:08.722Z,37.90
2022-10-23T04:52:35.265Z,41.70
2022-10-23T04:55:01.806Z,38.00
2022-10-23T04:57:28.349Z,44.70
2022-10-23T04:59:54.891Z,46.30
2022-10-23T05:02:21.427Z,45.00
2022-10-23T05:04:47.992Z,40.40
2022-10-23T05:07:14.574Z,42.90
2022-10-23T05:09:41.220Z,46.30
2022-10-23T05:12:07.648Z,42.50
2022-10-23T05:14:34.090Z,43.60
2022-10-23T05:17:04.264Z,46.10
2022-10-23T05:19:38.170Z,40.60
2022-10-23T05:22:05.417Z,47.80
2022-10-23T05:24:31.966Z,45.60
2022-10-23T05:26:58.505Z,53.70
2022-10-23T05:29:24.954Z,49.60
2022-10-23T05:31:57.626Z,47.10
2022-10-23T05:34:27.594Z,44.00
2022-10-23T05:36:55.179Z,48.40
2022-10-23T05:39:22.072Z,44.20
2022-10-23T05:41:48.512Z,46.70
2022-10-23T05:44:15.040Z,53.20
2022-10-23T05:46:42.601Z,55.30
2022-10-23T05:49:09.655Z,49.10
2022-10-23T05:51:37.239Z,48.90
2022-10-23T05:54:04.376Z,46.60
2022-10-23T05:56:30.954Z,48.90
2022-10-23T05:58:57.368Z,45.10
2022-10-23T06:01:24.010Z,45.30
2022-10-23T06:03:50.745Z,47.80
2022-10-23T06:06:17.388Z,47.90
2022-10-23T06:08:43.931Z,49.70
2022-10-23T06:11:13.285Z,50.40
2022-10-23T06:13:42.381Z,56.50
2022-10-23T06:16:13.688Z,51.60
2022-10-23T06:21:07.386Z,50.30
2022-10-23T06:23:36.612Z,43.80
2022-10-23T06:26:04.166Z,43.80
2022-10-23T06:28:30.799Z,39.00
2022-10-23T06:30:57.292Z,43.40
2022-10-23T06:33:24.187Z,44.70
2022-10-23T06:35:50.680Z,42.00
2022-10-23T06:38:17.165Z,44.40
2022-10-23T06:40:43.605Z,43.90
2022-10-23T06:43:10.057Z,37.50
2022-10-23T06:45:36.660Z,45.00
2022-10-23T06:48:03.331Z,39.30
2022-10-23T06:50:29.875Z,31.70
2022-10-23T06:52:56.675Z,31.20
2022-10-23T06:55:23.132Z,23.70
2022-10-23T06:57:50.515Z,24.10
2022-10-23T07:00:17.230Z,24.00
2022-10-23T07:02:44.045Z,23.20
2022-10-23T07:05:13.531Z,20.80
2022-10-23T07:07:40.776Z,21.90
2022-10-23T07:10:07.999Z,19.70
2022-10-23T07:12:34.584Z,17.40
2022-10-23T07:15:01.130Z,20.00
2022-10-23T07:17:29.200Z,17.70
2022-10-23T07:19:55.742Z,19.20
2022-10-23T07:22:22.309Z,21.30
2022-10-23T07:24:48.730Z,17.30
2022-10-23T07:27:15.361Z,16.40
2022-10-23T07:29:41.865Z,16.90
2022-10-23T07:32:08.284Z,13.20
2022-10-23T07:34:34.739Z,13.40
2022-10-23T07:37:01.165Z,12.00
2022-10-23T07:39:27.656Z,10.20
2022-10-23T07:41:54.200Z,9.60
2022-10-23T07:44:22.095Z,8.70
2022-10-23T07:46:50.931Z,10.00
2022-10-23T07:49:17.355Z,9.50
2022-10-23T07:51:47.476Z,9.60
2022-10-23T07:54:16.945Z,11.20
2022-10-23T07:56:43.484Z,9.90
2022-10-23T07:59:13.529Z,11.20
2022-10-23T08:01:41.095Z,10.30
2022-10-23T08:04:10.068Z,8.90
2022-10-23T08:06:36.608Z,9.30
2022-10-23T08:09:06.473Z,9.00
2022-10-23T08:11:34.316Z,7.40
2022-10-23T08:14:02.277Z,5.40
2022-10-23T08:16:28.793Z,6.20
2022-10-23T08:18:55.461Z,6.90
2022-10-23T08:21:22.103Z,6.80
2022-10-23T08:23:49.161Z,8.30
2022-10-23T08:26:16.004Z,8.20
2022-10-23T08:28:42.547Z,7.90
2022-10-23T08:31:12.055Z,7.40
2022-10-23T08:33:39.624Z,6.50
2022-10-23T08:36:15.272Z,6.10
2022-10-23T08:38:41.815Z,6.10
2022-10-23T08:41:24.293Z,6.60
2022-10-23T08:43:58.350Z,7.50
2022-10-23T08:46:30.209Z,6.10
2022-10-23T08:49:39.347Z,6.60
2022-10-23T08:52:22.071Z,6.40
2022-10-23T08:55:22.867Z,7.10
2022-10-23T08:58:03.886Z,6.10
2022-10-23T09:00:30.736Z,7.00
2022-10-23T09:03:00.577Z,6.50
2022-10-23T09:06:04.463Z,7.30
2022-10-23T09:08:45.140Z,7.70
2022-10-23T09:11:15.671Z,6.30
2022-10-23T09:19:50.267Z,6.10
2022-10-23T09:22:16.787Z,4.80
2022-10-23T09:24:43.829Z,4.50
2022-10-23T09:27:16.318Z,4.40
2022-10-23T09:29:51.832Z,4.30
2022-10-23T09:32:19.536Z,4.20
2022-10-23T09:34:55.538Z,3.40
2022-10-23T09:37:30.682Z,3.20
2022-10-23T09:40:22.071Z,6.40
2022-10-23T09:42:55.197Z,6.50
2022-10-23T09:45:27.946Z,3.30
2022-10-23T09:48:23.970Z,4.00
2022-10-23T09:50:57.141Z,4.70
2022-10-23T09:53:29.182Z,5.90
2022-10-23T09:55:58.882Z,5.10
2022-10-23T09:58:33.392Z,4.80
2022-10-23T10:01:00.125Z,3.90
2022-10-23T10:03:26.888Z,5.70
2022-10-23T10:06:01.855Z,5.70
2022-10-23T10:08:52.007Z,5.40
2022-10-23T10:11:54.192Z,3.70
2022-10-23T10:14:42.539Z,5.30
2022-10-23T10:17:31.198Z,4.40
2022-10-23T10:20:06.766Z,4.80
2022-10-23T10:22:56.259Z,4.20
2022-10-23T10:25:52.228Z,3.50
2022-10-23T10:28:31.805Z,5.20
2022-10-23T10:31:01.366Z,3.70
2022-10-23T10:33:41.090Z,5.60
2022-10-23T10:36:41.961Z,6.50
2022-10-23T10:39:45.257Z,4.60
2022-10-23T10:42:31.010Z,5.00
2022-10-23T10:45:19.354Z,5.50
2022-10-23T10:48:12.184Z,4.50
2022-10-23T10:50:54.462Z,5.60
2022-10-23T10:53:28.683Z,6.40
2022-10-23T10:55:59.381Z,7.20
2022-10-23T10:58:40.405Z,4.30
2022-10-23T11:01:23.161Z,4.80
2022-10-23T11:03:55.454Z,4.30
2022-10-23T11:06:27.293Z,4.90
2022-10-23T11:09:09.259Z,5.40
2022-10-23T11:11:40.847Z,5.70
2022-10-23T11:14:18.373Z,5.80
2022-10-23T11:16:54.938Z,4.70
2022-10-23T11:19:35.416Z,6.10
2022-10-23T11:22:23.664Z,5.10
2022-10-23T11:25:09.047Z,6.40
2022-10-23T11:27:49.617Z,5.70
2022-10-23T11:30:41.164Z,5.10
2022-10-23T11:33:25.775Z,6.30
2022-10-23T11:36:13.274Z,4.20
2022-10-23T11:38:42.329Z,4.80
2022-10-23T11:41:23.655Z,4.70
2022-10-23T11:43:58.780Z,4.40
2022-10-23T11:46:25.217Z,4.50
2022-10-23T11:48:53.631Z,3.80
2022-10-23T11:51:33.657Z,3.80
2022-10-23T11:54:12.284Z,6.80
2022-10-23T11:56:50.900Z,4.00
2022-10-23T11:59:27.811Z,7.60
2022-10-23T12:01:56.074Z,3.40
2022-10-23T12:04:28.038Z,1.90
2022-10-23T12:07:00.772Z,5.20
2022-10-23T12:09:30.234Z,2.60
2022-10-23T12:12:08.965Z,2.90
2022-10-23T12:14:38.686Z,2.50
2022-10-23T12:17:23.861Z,4.00
2022-10-23T12:19:53.593Z,3.10
2022-10-23T12:22:24.485Z,2.50
2022-10-23T12:25:13.383Z,2.40
2022-10-23T12:28:01.540Z,2.60
2022-10-23T12:30:39.651Z,3.90
2022-10-23T12:33:20.004Z,2.10
2022-10-23T12:36:06.412Z,3.50
2022-10-23T12:38:35.566Z,2.80
2022-10-23T12:41:13.113Z,3.80
2022-10-23T12:43:40.884Z,3.30
2022-10-23T12:46:30.977Z,2.60
2022-10-23T12:48:59.360Z,2.90
2022-10-23T12:51:28.889Z,3.50
2022-10-23T12:53:55.823Z,3.70
2022-10-23T12:56:22.777Z,3.80
2022-10-23T12:58:52.587Z,2.60
2022-10-23T13:01:31.786Z,2.60
2022-10-23T13:04:10.824Z,3.30
2022-10-23T13:06:39.996Z,2.50
2022-10-23T13:09:15.414Z,3.60
2022-10-23T13:11:42.602Z,5.00
2022-10-23T13:14:13.737Z,3.40
2022-10-23T13:16:40.363Z,2.30
2022-10-23T13:19:06.916Z,3.10
2022-10-23T13:21:33.355Z,2.90
2022-10-23T13:23:59.886Z,2.20
2022-10-23T13:26:39.529Z,3.30
2022-10-23T13:29:20.645Z,3.40
2022-10-23T13:31:47.593Z,2.70
2022-10-23T13:34:58.150Z,3.40
2022-10-23T13:37:37.107Z,4.10
2022-10-23T13:40:07.025Z,6.70
2022-10-23T13:42:33.655Z,2.00
2022-10-23T13:45:00.094Z,4.70
2022-10-23T13:47:26.806Z,6.70
2022-10-23T13:49:53.451Z,4.60
2022-10-23T13:52:22.553Z,9.80
2022-10-23T13:54:49.510Z,8.00
2022-10-23T13:57:16.566Z,5.50
2022-10-23T13:59:43.408Z,5.80
2022-10-23T14:02:23.583Z,2.80
2022-10-23T14:04:51.536Z,5.60
2022-10-23T14:07:18.609Z,10.10
2022-10-23T14:09:45.439Z,4.70
2022-10-23T14:12:11.980Z,18.30
2022-10-23T14:14:38.522Z,24.20
2022-10-23T14:17:05.170Z,11.80
2022-10-23T14:19:33.752Z,7.40
2022-10-23T14:22:00.299Z,7.90
2022-10-23T14:24:26.941Z,4.20
2022-10-23T14:26:53.584Z,8.30
2022-10-23T14:29:24.171Z,9.10
2022-10-23T14:31:51.216Z,7.60
2022-10-23T14:34:18.320Z,8.50
2022-10-23T14:36:50.305Z,10.40
2022-10-23T14:39:18.335Z,11.80
2022-10-23T14:41:44.801Z,12.50
2022-10-23T14:44:11.357Z,11.30
2022-10-23T14:46:37.858Z,10.50
2022-10-23T14:49:04.420Z,4.40
2022-10-23T14:51:31.063Z,6.30
2022-10-23T14:54:00.189Z,7.20
2022-10-23T14:56:27.417Z,5.90
2022-10-23T14:58:54.470Z,4.80
2022-10-23T15:01:21.070Z,3.30
2022-10-23T15:03:47.588Z,4.00
2022-10-23T15:06:17.607Z,4.00
2022-10-23T15:08:45.026Z,13.70
2022-10-23T15:11:12.671Z,11.40
2022-10-23T15:13:39.336Z,23.70
2022-10-23T15:16:08.259Z,18.60
2022-10-23T15:18:35.821Z,22.50
2022-10-23T15:21:03.875Z,34.00
2022-10-23T15:23:30.404Z,31.60
2022-10-23T15:25:59.332Z,25.20
2022-10-23T15:28:28.914Z,15.00
2022-10-23T15:30:55.760Z,15.00
2022-10-23T15:33:23.839Z,13.70
2022-10-23T15:35:51.504Z,20.80
2022-10-23T15:38:18.570Z,16.80
2022-10-23T15:40:45.303Z,19.00
2022-10-23T15:43:15.940Z,15.10
2022-10-23T15:45:43.104Z,23.60
2022-10-23T15:48:09.783Z,9.00
2022-10-23T15:50:36.989Z,20.90
2022-10-23T15:53:03.839Z,13.30
2022-10-23T15:55:30.475Z,40.10
2022-10-23T15:57:57.140Z,34.20
2022-10-23T16:00:23.716Z,21.50
2022-10-23T16:02:50.280Z,19.60
2022-10-23T16:05:16.732Z,23.30
2022-10-23T16:07:43.288Z,23.30
2022-10-23T16:10:10.119Z,24.40
2022-10-23T16:12:36.657Z,26.30
2022-10-23T16:15:03.500Z,31.40
2022-10-23T16:17:29.946Z,27.30
2022-10-23T16:19:56.409Z,27.90
2022-10-23T16:22:22.879Z,28.90
2022-10-23T16:24:49.473Z,29.00
2022-10-23T16:27:16.092Z,28.10
2022-10-23T16:29:42.777Z,26.10
2022-10-23T16:32:09.275Z,38.20
2022-10-23T16:34:35.718Z,39.10
2022-10-23T16:37:02.895Z,36.80
2022-10-23T16:39:29.375Z,35.90
2022-10-23T16:41:55.823Z,35.00
2022-10-23T16:44:22.322Z,57.40
2022-10-23T16:46:48.747Z,44.80
2022-10-23T16:49:15.255Z,43.10
2022-10-23T16:51:41.792Z,38.90
2022-10-23T16:54:09.571Z,59.90
2022-10-23T16:56:36.207Z,62.00
2022-10-23T16:59:02.748Z,55.80
2022-10-23T17:01:31.393Z,51.40
2022-10-23T17:03:58.073Z,45.10
2022-10-23T17:06:31.911Z,41.00
2022-10-23T17:08:59.957Z,52.50
2022-10-23T17:11:32.337Z,46.10
2022-10-23T17:14:14.456Z,48.30
2022-10-23T17:16:48.693Z,48.20
2022-10-23T17:19:33.083Z,50.10
2022-10-23T17:22:05.470Z,49.90
2022-10-23T17:24:31.939Z,55.00
2022-10-23T17:26:58.378Z,55.90
2022-10-23T17:29:24.919Z,47.00
2022-10-23T17:31:51.867Z,53.00
2022-10-23T17:34:20.890Z,53.30
2022-10-23T17:36:50.413Z,58.90
2022-10-23T17:39:20.407Z,58.10
2022-10-23T17:41:47.972Z,84.00
2022-10-23T17:44:14.918Z,75.90
2022-10-23T17:46:41.667Z,60.90
2022-10-23T17:49:08.307Z,64.60
2022-10-23T17:51:35.973Z,61.20
2022-10-23T17:54:06.818Z,62.90
2022-10-23T17:56:34.999Z,70.50
2022-10-23T17:59:08.679Z,111.10
2022-10-23T18:01:35.600Z,86.40
2022-10-23T18:04:05.604Z,169.20
2022-10-23T18:06:36.053Z,147.30
2022-10-23T18:09:07.066Z,141.60
2022-10-23T18:11:36.556Z,89.90
2022-10-23T18:14:05.658Z,108.40
2022-10-23T18:16:34.145Z,98.20
2022-10-23T18:19:03.152Z,75.40
2022-10-23T18:21:30.501Z,60.50
2022-10-23T18:23:59.610Z,59.70
2022-10-23T18:26:28.508Z,71.10
2022-10-23T18:28:57.523Z,63.80
2022-10-23T18:31:26.386Z,49.90
2022-10-23T18:33:58.098Z,48.40
2022-10-23T18:36:27.992Z,69.40
2022-10-23T18:41:22.374Z,76.70
2022-10-23T18:43:49.940Z,81.10
2022-10-23T18:46:17.525Z,83.10
2022-10-23T18:48:44.859Z,81.50
2022-10-23T18:51:16.072Z,85.60
2022-10-23T18:56:09.517Z,82.50
2022-10-23T18:58:37.274Z,92.20
2022-10-23T19:01:04.531Z,99.90
2022-10-23T19:03:31.147Z,91.80
2022-10-23T19:05:59.924Z,100.20
2022-10-23T19:08:26.633Z,95.80
2022-10-23T19:10:53.856Z,75.90
2022-10-23T19:13:20.706Z,71.40
2022-10-23T19:15:47.342Z,77.10
2022-10-23T19:18:13.965Z,75.90
2022-10-23T19:20:43.642Z,83.60
2022-10-23T19:23:12.798Z,84.40
2022-10-23T19:25:44.157Z,86.40
2022-10-23T19:28:11.107Z,93.10
2022-10-23T19:30:39.698Z,87.70
2022-10-23T19:33:06.237Z,87.00
2022-10-23T19:35:32.976Z,99.90
2022-10-23T19:37:59.514Z,94.20
2022-10-23T19:40:26.052Z,93.50
2022-10-23T19:42:52.494Z,89.30
2022-10-23T19:45:19.164Z,88.30
2022-10-23T19:47:46.252Z,80.60
2022-10-23T19:50:13.200Z,86.50
2022-10-23T19:52:39.979Z,108.30
2022-10-23T19:55:07.330Z,88.00
2022-10-23T19:57:33.986Z,84.00
2022-10-23T20:00:01.450Z,75.80
2022-10-23T20:02:28.854Z,80.30
2022-10-23T20:04:55.446Z,85.40
2022-10-23T20:07:21.884Z,89.20
2022-10-23T20:09:48.421Z,97.70
2022-10-23T20:12:14.964Z,80.00
2022-10-23T20:14:41.503Z,80.70
2022-10-23T20:17:08.045Z,75.50
2022-10-23T20:19:34.479Z,71.90
2022-10-23T20:22:00.934Z,79.70
2022-10-23T20:24:27.443Z,76.40
2022-10-23T20:26:55.562Z,81.80
2022-10-23T20:29:23.309Z,109.60
2022-10-23T20:31:49.974Z,84.20
2022-10-23T20:34:16.795Z,93.40
2022-10-23T20:36:46.942Z,89.20
2022-10-23T20:39:20.668Z,87.20
2022-10-23T20:41:47.783Z,101.30
2022-10-23T20:46:44.985Z,86.00
2022-10-23T20:49:13.040Z,88.20
2022-10-23T20:51:39.872Z,86.70
2022-10-23T20:54:06.414Z,82.40
2022-10-23T20:56:35.920Z,75.30
2022-10-23T20:59:05.850Z,75.80
2022-10-23T21:01:33.811Z,70.80
2022-10-23T21:04:02.361Z,70.00
2022-10-23T21:06:45.432Z,74.70
2022-10-23T21:09:17.717Z,67.50
2022-10-23T21:11:44.186Z,73.40
2022-10-23T21:14:10.654Z,69.50
2022-10-23T21:16:39.342Z,47.90
2022-10-23T21:19:05.807Z,48.10
2022-10-23T21:21:32.457Z,54.20
2022-10-23T21:23:59.943Z,59.20
2022-10-23T21:26:29.118Z,65.30
2022-10-23T21:29:16.901Z,70.70
2022-10-23T21:31:42.573Z,66.00
2022-10-23T21:36:54.155Z,70.60
2022-10-23T21:39:29.022Z,67.70
2022-10-23T21:41:55.561Z,67.10
2022-10-23T21:44:22.264Z,67.20
2022-10-23T21:46:48.744Z,70.90
2022-10-23T21:49:15.383Z,72.50
2022-10-23T21:51:41.925Z,70.40
2022-10-23T21:54:12.561Z,59.80
2022-10-23T21:56:42.429Z,61.80
2022-10-23T21:59:11.583Z,60.80
2022-10-23T22:01:42.440Z,60.50
2022-10-23T22:04:09.991Z,56.10
2022-10-23T22:06:38.478Z,62.90
2022-10-23T22:09:06.289Z,55.60
2022-10-23T22:11:33.301Z,59.60
2022-10-23T22:14:00.778Z,61.10
2022-10-23T22:16:27.922Z,62.70
2022-10-23T22:18:54.581Z,51.90
2022-10-23T22:21:25.018Z,55.20
2022-10-23T22:23:54.703Z,59.10
2022-10-23T22:26:35.890Z,56.20
2022-10-23T22:29:06.768Z,52.40
2022-10-23T22:31:35.040Z,53.00
2022-10-23T22:34:13.284Z,59.10
2022-10-23T22:36:51.039Z,59.00
2022-10-23T22:39:17.461Z,53.10
2022-10-23T22:41:44.335Z,56.30
2022-10-23T22:44:12.098Z,56.10
2022-10-23T22:46:38.944Z,52.80
2022-10-23T22:54:03.854Z,56.50
2022-10-23T22:56:30.834Z,60.40
2022-10-23T22:58:58.293Z,61.70
2022-10-23T23:01:38.875Z,63.00
2022-10-23T23:04:14.085Z,61.80
2022-10-23T23:06:52.143Z,55.20
2022-10-23T23:09:18.667Z,58.50
2022-10-23T23:11:52.170Z,64.60
2022-10-23T23:14:23.391Z,53.50
2022-10-23T23:16:52.953Z,56.40
2022-10-23T23:19:19.922Z,60.00
2022-10-23T23:21:46.568Z,54.20
2022-10-23T23:24:13.034Z,56.20
2022-10-23T23:26:40.096Z,47.20
2022-10-23T23:29:06.650Z,47.20
2022-10-23T23:31:33.190Z,51.60
2022-10-23T23:33:59.685Z,43.10
2022-10-23T23:36:28.221Z,44.10
2022-10-23T23:38:56.494Z,50.30
2022-10-23T23:41:23.970Z,50.20
2022-10-23T23:43:50.915Z,45.20
2022-10-23T23:46:17.882Z,48.80
2022-10-23T23:48:44.951Z,45.60
2022-10-23T23:51:11.410Z,48.70
2022-10-23T23:53:37.963Z,46.40
2022-10-23T23:56:05.055Z,44.00
2022-10-23T23:58:31.671Z,42.70
